Luis Marín

Jefe de ojeadores - Athletic Bilbao
4 Dic 2028
Lunes
Continuar

Personalidad

Adaptabilidad (2) Ambición (16) Controversia (3) Lealtad (8) Presión (20) Profesionalismo (13) Deportividad (12) Temperamento (11)

Perfil

Estilo de dirección Democrático
Licencia Continental Pro
Determinación 6
Gestión de personas 10
Motivación 12
Disciplina 15
Satisfacción laboral
100%
Fatiga
0%
Cargo Jefe de ojeadores
Salario 92.3K p/s
Contrato 14.03.2029

Rendimiento

Comportamiento Bueno
Efectividad del entrenamiento
56%
Desarrollo de jugadores
45%
Prevención de lesiones
45%
Implementación táctica
65%

Eventos recientes

Asistió a una reunión de captación ahora
Asistió a una reunión de captación ahora
Recomendó un objetivo de fichaje ahora
Evaluó a un jugador ahora
Evaluó a un jugador ahora
Evaluó a un jugador ahora
Evaluó a un jugador ahora
Observó un partido ahora

Actualmente siguiendo

150
Jugador Club Estado Habilidad Confianza Observado Última observación Último voto
Celías Ingenthron Platense Activo 109 / 125 40% 11 02.12.2028 -
Cheveyo Tsawa Club Brugge Activo 132 / 134 40% 2 02.12.2028 -
Christos Mouzakitis Hull City Activo 140 / 147 40% 4 02.12.2028 -
Marc Bernal Sevilla Activo 145 / 158 40% 7 01.12.2028 -
Harrison Armstrong Ipswich Town Activo 138 / 143 40% 3 01.12.2028 -
Salvador Blopá Wolverhampton Activo 129 / 131 40% 1 01.12.2028 -
Tyler Fletcher Rotherham United Activo 115 / 124 40% 6 30.11.2028 -
Tobías Andrada River Plate Activo 118 / 126 40% 3 30.11.2028 -
Louis Page Leicester City Activo 136 / 141 40% 1 30.11.2028 -
Kiani Inge Groningen Activo 120 / 123 40% 1 29.11.2028 -
Chris Rigg West Ham United Activo 141 / 148 40% 7 28.11.2028 -
Veljko Milosavljević Bournemouth Activo 147 / 154 40% 4 28.11.2028 -
Daniel Banjaqui Benfica Activo 131 / 135 40% 4 26.11.2028 -
Giovanni Leoni Lincoln City Activo 152 / 152 40% 6 26.11.2028 -
Matias Siltanen Malmo FF Activo 124 / 133 40% 4 26.11.2028 -
Axel Tape Bayer Leverkusen Activo 142 / 143 40% 9 25.11.2028 -
Alejandro Almaraz NK Celje Activo 113 / 124 40% 8 24.11.2028 -
Jorge Salinas Racing Santander Activo 139 / 141 40% 5 23.11.2028 -
Ayyoub Bouaddi Stoke City Activo 155 / 158 40% 7 23.11.2028 -
Diego León Rotherham United Activo 132 / 130 40% 8 22.11.2028 -
Andrija Bulatović Chamois Niortais Activo 138 / 138 40% 2 19.11.2028 -
Trey Nyoni Rotherham United Activo 149 / 150 40% 5 17.11.2028 -
Davinchi Getafe Activo 127 / 133 40% 2 12.11.2028 -
Aarón Martín Al-Qadisiyah Activo 118 / 125 40% 4 10.11.2028 -
Tobías Ramírez River Plate Activo 134 / 135 40% 9 02.11.2028 -
Mirza Ćatović VfB Stuttgart Activo 133 / 133 40% 1 31.10.2028 -
Luka Vušković Tottenham Activo 154 / 157 40% 2 30.10.2028 -
Sebastian Rodriguez Houston Dynamo Activo 128 / 126 40% 3 29.10.2028 -
Buba Sangaré Elche Activo 142 / 139 40% 5 26.10.2028 -
Honest Ahanor Atalanta Activo 137 / 148 40% 6 23.10.2028 -
João Simões Sporting CP Activo 138 / 147 40% 2 22.10.2028 -
Andrés Cuenca Como Activo 122 / 125 40% 1 16.10.2028 -
Agustín Medina Lanús Activo 120 / 124 40% 5 10.10.2028 -
Harry Amass Manchester United Activo 144 / 153 40% 1 04.10.2028 -
Thijs Kraaijeveld USM Alger Negociando 123 / 131 40% 5 28.08.2028 -
Ayden Heaven Portsmouth Activo 145 / 153 40% 3 07.08.2028 -
Jan Bürger Northampton Town Activo 121 / 125 40% 1 26.07.2028 -
Romelle Donovan Brentford Activo 136 / 136 40% 5 13.06.2028 -
Babis Kostoulas Oxford United Activo 147 / 147 40% 1 13.06.2028 -
Lucas Høgsberg RC Strasbourg Activo 146 / 146 40% 1 07.06.2028 -
Ignasi Vilarrasa Burgos Informe listo 137 / 130 69% 1 03.06.2028 -
Kauã Moraes Flamengo Activo 138 / 133 40% 1 10.01.2028 -
José Arnáiz Granada Activo 130 / 132 69% 1 02.01.2028 -
Caleb Yirenkyi Coventry City Activo 136 / 147 40% 5 31.12.2027 -
Josh Nichols Oldham Athletic Activo 120 / 125 40% 1 31.12.2027 -
Eliás Montiel Borussia Dortmund Activo 134 / 137 40% 1 21.06.2027 -
Leo Castledine Middlesbrough Activo 126 / 131 40% 3 16.06.2027 -
Nestory Irankunda Watford Activo 122 / 125 40% 2 16.06.2027 -
Jakub Kiwior Athletic Bilbao Activo 156 / 156 69% 1 01.06.2027 -
Franculino Brighton Activo 137 / 141 67% 1 01.06.2027 -
Kang-In Lee Villarreal Activo 157 / 158 66% 1 01.06.2027 -
Lucas Bergvall Tottenham Activo 152 / 152 40% 1 31.05.2027 -
Jeremie Frimpong Liverpool Activo 166 / 160 40% 4 29.05.2027 -
Alexis Saelemaekers AC Milan Activo 156 / 151 40% 1 29.05.2027 -
Kirill Glebov CSKA Moscow Activo 127 / 130 40% 5 28.05.2027 -
Mateus Mané Burnley Activo 131 / 141 40% 3 28.05.2027 -
Xavi Simons Tottenham Activo 165 / 157 40% 8 25.05.2027 -
Álex Baena Atlético Madrid Activo 160 / 160 40% 9 25.05.2027 -
Amadou Onana Aston Villa Activo 154 / 156 40% 12 24.05.2027 -
Georges Mikautadze Villarreal Activo 158 / 153 40% 3 24.05.2027 -
Noni Madueke Arsenal Activo 162 / 155 40% 8 24.05.2027 -
Senny Mayulu Paris Saint-Germain Activo 140 / 148 40% 2 24.05.2027 -
Ferran Torres Paris Saint-Germain Activo 166 / 164 40% 9 23.05.2027 -
Ezekiel Kwame Alladoh Philadelphia Union Activo 119 / 125 40% 1 21.05.2027 -
Jan Virgili Club Brugge Activo 139 / 136 40% 8 19.05.2027 -
Jonathan Asp-Jensen Deportivo La Coruña Activo 125 / 125 40% 1 19.05.2027 -
Olívio Tomé Benfica Activo 113 / 115 40% 1 18.05.2027 -
Miloš Kerkez Liverpool Activo 164 / 158 40% 2 17.05.2027 -
Antony Betis Activo 147 / 151 40% 2 17.05.2027 -
Othmane Maamma Watford Activo 118 / 129 40% 3 16.05.2027 -
Moisés Caicedo Chelsea Activo 166 / 169 40% 4 13.05.2027 -
Joško Gvardiol Manchester City Activo 166 / 165 40% 2 13.05.2027 Más información
Callum Hudson-Odoi Nottingham Forest Activo 160 / 151 40% 1 13.05.2027 -
Khvicha Kvaratskhelia Paris Saint-Germain Activo 166 / 167 40% 3 12.05.2027 -
Johnny Cardoso Atlético Madrid Activo 146 / 154 40% 7 11.05.2027 -
Gabriel Martinelli Arsenal Activo 160 / 161 40% 5 10.05.2027 -
Sindre Walle Egeli Udinese Activo 135 / 136 40% 3 10.05.2027 -
Fermín Barcelona Activo 169 / 163 40% 4 10.05.2027 -
William Gomes Porto Activo 139 / 147 40% 2 10.05.2027 -
Nikolaus Wurmbrand Girona Activo 115 / 126 40% 1 10.05.2027 -
Carlos Espí Real Madrid Activo 118 / 124 40% 1 10.05.2027 -
Bryan Mbeumo Manchester United Activo 155 / 157 40% 7 07.05.2027 -
Pablo Barrios Atlético Madrid Activo 159 / 160 40% 4 03.05.2027 -
Gianluca Prestianni Benfica Activo 136 / 138 40% 2 03.05.2027 -
Ryan Gravenberch Liverpool Activo 165 / 162 40% 8 30.04.2027 -
Savinho Tottenham Activo 155 / 158 40% 8 30.04.2027 -
Jadon Sancho Manchester United Activo 147 / 150 40% 6 30.04.2027 -
Pedri Barcelona Activo 178 / 181 40% 11 28.04.2027 -
David Mella Deportivo La Coruña Activo 140 / 131 40% 1 27.04.2027 -
Chemsdine Talbi Sunderland Activo 144 / 146 40% 5 25.04.2027 -
Boubacar Kamara Aston Villa Activo 162 / 164 40% 6 23.04.2027 -
Vitinha Paris Saint-Germain Activo 177 / 177 40% 7 17.04.2027 -
João Neves Paris Saint-Germain Activo 173 / 170 40% 2 16.04.2027 -
Matheus Cunha Manchester United Activo 155 / 156 40% 7 15.04.2027 -
Tino Livramento Newcastle United Activo 153 / 158 40% 3 15.04.2027 -
Gavi Barcelona Activo 157 / 162 40% 7 11.04.2027 -
Amad Manchester United Activo 150 / 155 40% 3 09.04.2027 -
Eduardo Lozano Botafogo Activo 135 / 150 40% 1 29.03.2027 -
Malick Fofana Sunderland Activo 146 / 148 40% 5 23.03.2027 -
Rocco Vata Watford Activo 126 / 124 40% 6 21.03.2027 -
Ethan Williams Peterborough United Activo 109 / 119 40% 1 21.03.2027 -
Anthony Gordon Barcelona Activo 174 / 162 40% 5 19.03.2027 -
Oscar Schwartau Norwich City Activo 115 / 132 40% 1 19.03.2027 -
Nico O'Reilly Manchester City Activo 150 / 156 40% 9 15.03.2027 -
Hugo Ekitiké Liverpool Activo 158 / 163 40% 2 09.03.2027 -
Mohamadou Kanté Crawley Town Activo 113 / 124 40% 1 09.03.2027 -
Kobbie Mainoo Manchester United Activo 149 / 156 40% 5 07.03.2027 -
Antoni Milambo Brentford Activo 137 / 143 40% 2 03.03.2027 -
Dehmaine Tabibou FC Nantes Activo 130 / 130 40% 1 02.03.2027 -
Iliman N'Diaye Everton Activo 161 / 160 40% 1 09.02.2027 -
Rayan Cherki Manchester City Activo 163 / 165 40% 1 05.02.2027 -
Elliot Anderson Manchester City Activo 152 / 155 40% 1 28.01.2027 -
Enzo Barrenechea Benfica Activo 147 / 148 67% 1 01.01.2027 Aprobar
Eduardo Camavinga Real Madrid Activo 169 / 168 40% 4 30.12.2026 -
Adam Wharton Crystal Palace Activo 144 / 153 40% 1 30.12.2026 -
Bazoumana Touré Newcastle United Activo 129 / 145 40% 1 25.12.2026 -
Fran García Betis Activo 153 / 149 40% 2 22.12.2026 -
Alex Scott Bournemouth Activo 155 / 153 40% 1 22.12.2026 -
Bobby Clark Derby County Activo 119 / 130 40% 5 18.12.2026 -
Maxence Lacroix Chelsea Activo 155 / 146 40% 1 13.12.2026 -
Mathys Tel Tottenham Activo 135 / 144 40% 2 11.12.2026 -
Carlos Romero Villarreal Activo 150 / 146 40% 1 11.12.2026 -
Lautaro Vargas Unión de Santa Fe Activo 126 / 125 40% 9 07.12.2026 -
Sergi Cardona KAA Gent Activo 143 / 147 40% 1 07.12.2026 -
Joaquín Tobio Burgos Pachuca Activo 130 / 127 40% 3 05.12.2026 -
Jeremías Merlo Gimnasia La Plata Activo 108 / 129 40% 6 04.12.2026 -
Pape Guèye Villarreal Activo 142 / 146 40% 2 03.12.2026 -
Curtis Jones Inter Activo 152 / 157 40% 1 02.12.2026 -
Levi Colwill Chelsea Activo 163 / 161 40% 1 02.12.2026 -
Tristan Degreef Anderlecht Activo 127 / 122 40% 2 18.11.2026 -
Ignacio Perruzzi San Lorenzo Activo 129 / 130 40% 2 10.11.2026 -
Conor Gallagher Tottenham Activo 149 / 152 40% 1 09.11.2026 -
Ramiro Hernandes Belgrano Activo 129 / 132 40% 5 06.11.2026 -
Robert FC Copenhagen Activo 133 / 132 40% 2 05.11.2026 -
Mohau Nkota Al-Ettifaq Activo 123 / 124 40% 1 03.11.2026 -
Juan Velázquez Belgrano Activo 113 / 125 40% 1 03.11.2026 -
Eric García Barcelona Activo 166 / 158 40% 1 30.10.2026 -
José Ángel Carmona Sevilla Activo 138 / 147 40% 1 25.10.2026 -
Cristian Uribe Monaco Activo 158 / 151 40% 1 17.10.2026 -
Jarrad Branthwaite Everton Activo 157 / 153 40% 1 17.10.2026 -
Joel Medina Independiente Activo 99 / 120 40% 4 09.10.2026 -
Alexis Mac Allister Liverpool Activo 154 / 163 40% 2 08.10.2026 -
Jules Koundé Barcelona Activo 161 / 155 40% 1 08.10.2026 -
Alan Forneris Racing Club Activo 108 / 120 40% 3 05.10.2026 -
Jonás Luna Wanderers Activo 111 / 127 40% 2 02.10.2026 -
Facundo Di Biasi Gimnasia La Plata Activo 113 / 126 40% 1 30.09.2026 -
Mateo Pérez Curci Independiente Activo 119 / 123 40% 2 19.09.2026 -
Amin Boudri Los Angeles Football Club Activo 121 / 127 40% 1 11.09.2026 -
Tomás Aranda Boca Juniors Activo 112 / 120 40% 2 09.09.2026 -
Ignacio Russo Tigre Activo 130 / 120 40% 1 01.08.2026 -